createdAt,value
2017-05-31T00:00:38.149Z,1016.38
2017-05-31T00:01:40.058Z,1016.39
2017-05-31T00:02:41.966Z,1016.37
2017-05-31T00:03:43.878Z,1016.37
2017-05-31T00:04:45.721Z,1016.39
2017-05-31T00:05:47.581Z,1016.42
2017-05-31T00:06:49.493Z,1016.41
2017-05-31T00:07:51.405Z,1016.42
2017-05-31T00:08:53.515Z,1016.45
2017-05-31T00:10:07.665Z,1016.45
2017-05-31T00:11:09.577Z,1016.44
2017-05-31T00:12:11.487Z,1016.47
2017-05-31T00:13:13.398Z,1016.44
2017-05-31T00:14:15.244Z,1016.52
2017-05-31T00:15:17.094Z,1016.51
2017-05-31T00:16:19.005Z,1016.52
2017-05-31T00:17:20.920Z,1016.52
2017-05-31T00:18:22.824Z,1016.53
2017-05-31T00:19:37.321Z,1016.54
2017-05-31T00:20:39.230Z,1016.53
2017-05-31T00:21:41.138Z,1016.55
2017-05-31T00:22:43.049Z,1016.58
2017-05-31T00:23:44.894Z,1016.56
2017-05-31T00:24:46.746Z,1016.61
2017-05-31T00:25:48.657Z,1016.64
2017-05-31T00:26:50.568Z,1016.68
2017-05-31T00:27:52.475Z,1016.72
2017-05-31T00:29:07.174Z,1016.67
2017-05-31T00:30:09.083Z,1016.68
2017-05-31T00:31:10.993Z,1016.69
2017-05-31T00:32:12.901Z,1016.66
2017-05-31T00:33:14.747Z,1016.76
2017-05-31T00:34:16.595Z,1016.71
2017-05-31T00:35:18.519Z,1016.79
2017-05-31T00:36:20.411Z,1016.78
2017-05-31T00:37:22.319Z,1016.75
2017-05-31T00:38:36.471Z,1016.79
2017-05-31T00:39:38.378Z,1016.77
2017-05-31T00:40:40.339Z,1016.81
2017-05-31T00:41:42.244Z,1016.87
2017-05-31T00:42:44.092Z,1016.89
2017-05-31T00:43:45.941Z,1016.87
2017-05-31T00:44:47.849Z,1016.88
2017-05-31T00:45:49.756Z,1016.85
2017-05-31T00:46:51.666Z,1016.90
2017-05-31T00:48:05.817Z,1016.85
2017-05-31T00:49:07.727Z,1016.89
2017-05-31T00:50:09.639Z,1016.90
2017-05-31T00:51:11.655Z,1016.93
2017-05-31T00:52:13.499Z,1016.91
2017-05-31T00:53:15.345Z,1016.88
2017-05-31T00:54:17.253Z,1016.93
2017-05-31T00:55:19.163Z,1016.94
2017-05-31T00:56:21.072Z,1016.90
2017-05-31T00:57:35.223Z,1016.96
2017-05-31T00:58:37.133Z,1016.93
2017-05-31T00:59:39.043Z,1017.01
2017-05-31T01:00:40.952Z,1016.99
2017-05-31T01:01:42.852Z,1016.98
2017-05-31T01:02:44.698Z,1017.04
2017-05-31T01:03:46.606Z,1017.10
2017-05-31T01:04:48.515Z,1017.12
2017-05-31T01:05:50.422Z,1017.16
2017-05-31T01:07:04.619Z,1017.18
2017-05-31T01:08:06.529Z,1017.11
2017-05-31T01:09:08.432Z,1017.10
2017-05-31T01:10:10.341Z,1017.10
2017-05-31T01:11:12.189Z,1017.14
2017-05-31T01:12:14.037Z,1017.16
2017-05-31T01:13:15.946Z,1017.20
2017-05-31T01:14:17.855Z,1017.20
2017-05-31T01:15:19.766Z,1017.22
2017-05-31T01:16:33.966Z,1017.23
2017-05-31T01:17:35.873Z,1017.15
2017-05-31T01:18:37.782Z,1017.16
2017-05-31T01:19:39.691Z,1017.19
2017-05-31T01:20:41.541Z,1017.18
2017-05-31T01:21:43.392Z,1017.21
2017-05-31T01:22:45.301Z,1017.26
2017-05-31T01:23:47.210Z,1017.25
2017-05-31T01:24:49.122Z,1017.27
2017-05-31T01:26:03.270Z,1017.31
2017-05-31T01:27:05.181Z,1017.31
2017-05-31T01:28:07.385Z,1017.30
2017-05-31T01:29:09.295Z,1017.33
2017-05-31T01:30:11.143Z,1017.31
2017-05-31T01:31:12.991Z,1017.30
2017-05-31T01:32:14.898Z,1017.34
2017-05-31T01:33:16.911Z,1017.39
2017-05-31T01:34:18.821Z,1017.41
2017-05-31T01:35:32.973Z,1017.44
2017-05-31T01:36:34.883Z,1017.42
2017-05-31T01:37:36.792Z,1017.43
2017-05-31T01:38:38.747Z,1017.47
2017-05-31T01:39:40.595Z,1017.43
2017-05-31T01:40:42.444Z,1017.42
2017-05-31T01:41:44.351Z,1017.45
2017-05-31T01:42:46.261Z,1017.46
2017-05-31T01:43:48.571Z,1017.42
2017-05-31T01:45:02.767Z,1017.43
2017-05-31T01:46:04.677Z,1017.41
2017-05-31T01:47:06.583Z,1017.43
2017-05-31T01:48:08.493Z,1017.47
2017-05-31T01:49:10.340Z,1017.52
2017-05-31T01:50:12.191Z,1017.58
2017-05-31T01:51:14.103Z,1017.53
2017-05-31T01:52:16.014Z,1017.54
2017-05-31T01:53:17.925Z,1017.54
2017-05-31T01:54:32.427Z,1017.56
2017-05-31T01:55:34.336Z,1017.53
2017-05-31T01:56:36.246Z,1017.56
2017-05-31T01:57:38.155Z,1017.55
2017-05-31T01:58:40.001Z,1017.56
2017-05-31T01:59:42.151Z,1017.55
2017-05-31T02:00:44.063Z,1017.58
2017-05-31T02:01:45.973Z,1017.59
2017-05-31T02:02:47.883Z,1017.59
2017-05-31T02:04:02.035Z,1017.52
2017-05-31T02:05:03.946Z,1017.52
2017-05-31T02:06:05.857Z,1017.50
2017-05-31T02:07:07.770Z,1017.52
2017-05-31T02:08:09.617Z,1017.54
2017-05-31T02:09:11.468Z,1017.48
2017-05-31T02:10:13.582Z,1017.54
2017-05-31T02:11:15.491Z,1017.58
2017-05-31T02:12:17.401Z,1017.57
2017-05-31T02:13:31.533Z,1017.59
2017-05-31T02:14:33.447Z,1017.61
2017-05-31T02:15:35.713Z,1017.54
2017-05-31T02:16:37.624Z,1017.58
2017-05-31T02:17:39.473Z,1017.55
2017-05-31T02:18:41.321Z,1017.56
2017-05-31T02:19:43.234Z,1017.55
2017-05-31T02:20:45.198Z,1017.63
2017-05-31T02:21:47.109Z,1017.64
2017-05-31T02:23:01.313Z,1017.63
2017-05-31T02:24:03.223Z,1017.66
2017-05-31T02:25:05.141Z,1017.62
2017-05-31T02:26:07.049Z,1017.63
2017-05-31T02:27:08.899Z,1017.59
2017-05-31T02:28:10.747Z,1017.67
2017-05-31T02:29:12.659Z,1017.65
2017-05-31T02:30:14.572Z,1017.65
2017-05-31T02:31:16.538Z,1017.63
2017-05-31T02:32:30.690Z,1017.67
2017-05-31T02:33:32.600Z,1017.65
2017-05-31T02:34:34.513Z,1017.66
2017-05-31T02:35:36.426Z,1017.68
2017-05-31T02:36:38.526Z,1017.70
2017-05-31T02:37:40.375Z,1017.69
2017-05-31T02:38:42.287Z,1017.72
2017-05-31T02:39:44.200Z,1017.73
2017-05-31T02:40:46.615Z,1017.73
2017-05-31T02:42:01.119Z,1017.73
2017-05-31T02:43:03.030Z,1017.76
2017-05-31T02:44:04.944Z,1017.74
2017-05-31T02:45:06.858Z,1017.74
2017-05-31T02:46:08.709Z,1017.73
2017-05-31T02:47:10.555Z,1017.76
2017-05-31T02:48:12.468Z,1017.80
2017-05-31T02:49:14.380Z,1017.80
2017-05-31T02:50:16.299Z,1017.84
2017-05-31T02:51:30.652Z,1017.83
2017-05-31T02:52:32.566Z,1017.88
2017-05-31T02:53:34.479Z,1017.84
2017-05-31T02:54:36.396Z,1017.87
2017-05-31T02:55:38.247Z,1017.88
2017-05-31T02:56:40.096Z,1017.87
2017-05-31T02:57:42.012Z,1017.85
2017-05-31T02:58:43.929Z,1017.86
2017-05-31T02:59:45.845Z,1017.87
2017-05-31T03:01:00.046Z,1017.89
2017-05-31T03:02:01.959Z,1017.87
2017-05-31T03:03:04.329Z,1017.91
2017-05-31T03:04:06.244Z,1017.90
2017-05-31T03:05:08.097Z,1017.94
2017-05-31T03:06:09.953Z,1017.88
2017-05-31T03:07:11.863Z,1017.96
2017-05-31T03:08:13.781Z,1017.93
2017-05-31T03:09:15.697Z,1017.97
2017-05-31T03:10:29.850Z,1018.00
2017-05-31T03:11:31.764Z,1017.93
2017-05-31T03:12:33.677Z,1017.99
2017-05-31T03:13:35.894Z,1018.01
2017-05-31T03:14:37.748Z,1018.10
2017-05-31T03:15:39.593Z,1018.01
2017-05-31T03:16:41.511Z,1017.98
2017-05-31T03:17:43.429Z,1018.01
2017-05-31T03:18:45.344Z,1017.99
2017-05-31T03:19:59.495Z,1018.03
2017-05-31T03:21:01.410Z,1018.05
2017-05-31T03:22:03.328Z,1018.08
2017-05-31T03:23:05.247Z,1018.08
2017-05-31T03:24:07.396Z,1018.11
2017-05-31T03:25:09.247Z,1018.11
2017-05-31T03:26:11.166Z,1018.12
2017-05-31T03:27:13.080Z,1018.15
2017-05-31T03:28:14.997Z,1018.11
2017-05-31T03:29:29.201Z,1018.12
2017-05-31T03:30:31.115Z,1018.16
2017-05-31T03:31:33.033Z,1018.21
2017-05-31T03:32:34.947Z,1018.22
2017-05-31T03:33:36.800Z,1018.16
2017-05-31T03:34:38.654Z,1018.19
2017-05-31T03:35:40.569Z,1018.23
2017-05-31T03:36:42.487Z,1018.27
2017-05-31T03:37:44.406Z,1018.29
2017-05-31T03:38:58.566Z,1018.36
2017-05-31T03:40:00.483Z,1018.34
2017-05-31T03:41:02.402Z,1018.37
2017-05-31T03:42:04.320Z,1018.40
2017-05-31T03:43:06.176Z,1018.36
2017-05-31T03:44:08.030Z,1018.38
2017-05-31T03:45:10.247Z,1018.40
2017-05-31T03:46:12.172Z,1018.39
2017-05-31T03:47:14.090Z,1018.45
2017-05-31T03:48:28.254Z,1018.47
2017-05-31T03:49:30.170Z,1018.50
2017-05-31T03:50:32.092Z,1018.51
2017-05-31T03:51:34.012Z,1018.54
2017-05-31T03:52:35.868Z,1018.50
2017-05-31T03:53:37.725Z,1018.49
2017-05-31T03:54:39.644Z,1018.50
2017-05-31T03:55:41.970Z,1018.53
2017-05-31T03:56:43.884Z,1018.52
2017-05-31T03:57:58.092Z,1018.61
2017-05-31T03:59:00.011Z,1018.60
2017-05-31T04:00:01.930Z,1018.60
2017-05-31T04:01:04.051Z,1018.58
2017-05-31T04:02:05.907Z,1018.58
2017-05-31T04:03:07.765Z,1018.60
2017-05-31T04:04:09.682Z,1018.69
2017-05-31T04:05:11.603Z,1018.66
2017-05-31T04:06:13.623Z,1018.74
2017-05-31T04:07:27.833Z,1018.71
2017-05-31T04:08:29.747Z,1018.73
2017-05-31T04:09:31.666Z,1018.73
2017-05-31T04:10:33.587Z,1018.74
2017-05-31T04:11:35.442Z,1018.77
2017-05-31T04:12:37.299Z,1018.84
2017-05-31T04:13:39.176Z,1018.81
2017-05-31T04:14:41.033Z,1018.82
2017-05-31T04:15:42.912Z,1018.81
2017-05-31T04:16:57.122Z,1018.82
2017-05-31T04:17:59.043Z,1018.91
2017-05-31T04:19:00.965Z,1018.99
2017-05-31T04:20:02.888Z,1018.95
2017-05-31T04:21:04.743Z,1019.01
2017-05-31T04:22:06.949Z,1019.00
2017-05-31T04:23:08.870Z,1019.08
2017-05-31T04:24:10.795Z,1019.10
2017-05-31T04:25:12.715Z,1019.10
2017-05-31T04:26:26.873Z,1019.05
2017-05-31T04:27:28.793Z,1019.04
2017-05-31T04:28:30.714Z,1019.04
2017-05-31T04:29:32.635Z,1018.97
2017-05-31T04:30:34.494Z,1019.02
2017-05-31T04:31:36.350Z,1019.01
2017-05-31T04:32:38.473Z,1018.98
2017-05-31T04:33:40.391Z,1019.00
2017-05-31T04:34:42.312Z,1018.95
2017-05-31T04:35:56.474Z,1019.12
2017-05-31T04:36:58.393Z,1019.26
2017-05-31T04:38:00.613Z,1019.42
2017-05-31T04:39:02.533Z,1019.43
2017-05-31T04:40:04.390Z,1019.48
2017-05-31T04:41:06.248Z,1019.58
2017-05-31T04:42:08.167Z,1019.66
2017-05-31T04:43:10.191Z,1019.60
2017-05-31T04:44:12.112Z,1019.63
2017-05-31T04:45:26.271Z,1019.62
2017-05-31T04:46:28.191Z,1019.62
2017-05-31T04:47:30.113Z,1019.62
2017-05-31T04:48:32.035Z,1019.62
2017-05-31T04:49:33.892Z,1019.61
2017-05-31T04:50:35.750Z,1019.58
2017-05-31T04:51:37.673Z,1019.56
2017-05-31T04:52:39.592Z,1019.48
2017-05-31T04:53:41.512Z,1019.57
2017-05-31T04:54:55.673Z,1019.56
2017-05-31T04:55:57.594Z,1019.55
2017-05-31T04:56:59.515Z,1019.69
2017-05-31T04:58:01.434Z,1019.69
2017-05-31T04:59:03.742Z,1019.72
2017-05-31T05:00:05.600Z,1019.60
2017-05-31T05:01:07.519Z,1019.70
2017-05-31T05:02:09.444Z,1019.52
2017-05-31T05:03:11.362Z,1019.77
2017-05-31T05:04:25.520Z,1019.87
2017-05-31T05:05:27.441Z,1019.99
2017-05-31T05:06:29.362Z,1020.09
2017-05-31T05:07:31.284Z,1020.22
2017-05-31T05:08:33.142Z,1020.23
2017-05-31T05:09:35.197Z,1020.26
2017-05-31T05:10:37.118Z,1019.98
2017-05-31T05:11:39.042Z,1019.95
2017-05-31T05:12:40.961Z,1019.97
2017-05-31T05:13:55.178Z,1019.88
2017-05-31T05:14:57.093Z,1019.84
2017-05-31T05:15:59.014Z,1019.83
2017-05-31T05:17:00.939Z,1019.79
2017-05-31T05:18:02.794Z,1019.66
2017-05-31T05:19:04.654Z,1019.64
2017-05-31T05:20:06.929Z,1019.71
2017-05-31T05:21:08.854Z,1019.87
2017-05-31T05:22:10.773Z,1020.01
2017-05-31T05:23:24.983Z,1019.94
2017-05-31T05:24:26.903Z,1019.95
2017-05-31T05:25:29.126Z,1019.92
2017-05-31T05:26:31.049Z,1020.06
2017-05-31T05:27:32.909Z,1020.06
2017-05-31T05:28:34.762Z,1020.12
2017-05-31T05:29:36.684Z,1020.03
2017-05-31T05:30:38.603Z,1020.07
2017-05-31T05:31:40.527Z,1020.10
2017-05-31T05:32:54.685Z,1020.09
2017-05-31T05:33:56.606Z,1020.05
2017-05-31T05:34:58.526Z,1020.15
2017-05-31T05:36:00.446Z,1020.01
2017-05-31T05:37:02.304Z,1020.03
2017-05-31T05:38:04.162Z,1020.08
2017-05-31T05:39:06.080Z,1020.10
2017-05-31T05:40:08.005Z,1020.11
2017-05-31T05:41:10.219Z,1020.11
2017-05-31T05:42:24.428Z,1020.28
2017-05-31T05:43:26.348Z,1020.32
2017-05-31T05:44:28.269Z,1020.33
2017-05-31T05:45:30.189Z,1020.37
2017-05-31T05:46:32.145Z,1020.23
2017-05-31T05:47:34.001Z,1020.14
2017-05-31T05:48:35.921Z,1020.24
2017-05-31T05:49:37.844Z,1020.39
2017-05-31T05:50:39.765Z,1020.45
2017-05-31T05:51:54.218Z,1020.51
2017-05-31T05:52:56.137Z,1020.48
2017-05-31T05:53:58.057Z,1020.41
2017-05-31T05:54:59.981Z,1020.51
2017-05-31T05:56:01.839Z,1020.55
2017-05-31T05:57:03.698Z,1020.47
2017-05-31T05:58:05.620Z,1020.45
2017-05-31T05:59:07.541Z,1020.48
2017-05-31T06:00:09.466Z,1020.56
2017-05-31T06:01:23.972Z,1020.47
2017-05-31T06:02:25.890Z,1020.44
2017-05-31T06:03:27.809Z,1020.52
2017-05-31T06:04:29.732Z,1020.57
2017-05-31T06:05:31.640Z,1020.60
2017-05-31T06:06:33.466Z,1020.47
2017-05-31T06:07:35.387Z,1020.52
2017-05-31T06:08:37.310Z,1020.46
2017-05-31T06:09:39.232Z,1020.45
2017-05-31T06:10:53.438Z,1020.61
2017-05-31T06:11:55.358Z,1020.61
2017-05-31T06:12:57.580Z,1020.57
2017-05-31T06:13:59.505Z,1020.52
2017-05-31T06:15:01.361Z,1020.51
2017-05-31T06:16:03.221Z,1020.67
2017-05-31T06:17:05.141Z,1020.62
2017-05-31T06:18:07.063Z,1020.76
2017-05-31T06:19:08.987Z,1020.66
2017-05-31T06:20:23.193Z,1020.66
2017-05-31T06:21:25.116Z,1020.66
2017-05-31T06:22:27.034Z,1020.65
2017-05-31T06:23:32.211Z,1020.63
2017-05-31T06:24:34.065Z,1020.63
2017-05-31T06:25:35.926Z,1020.71
2017-05-31T06:26:37.845Z,1020.53
2017-05-31T06:27:39.767Z,1020.58
2017-05-31T06:28:41.885Z,1020.61
2017-05-31T06:29:56.100Z,1020.59
2017-05-31T06:30:58.022Z,1020.49
2017-05-31T06:31:59.941Z,1020.48
2017-05-31T06:33:01.864Z,1020.61
2017-05-31T06:34:03.922Z,1020.73
2017-05-31T06:35:05.783Z,1020.76
2017-05-31T06:36:07.702Z,1020.74
2017-05-31T06:37:09.628Z,1020.83
2017-05-31T06:38:11.546Z,1020.86
2017-05-31T06:39:25.706Z,1020.90
2017-05-31T06:40:27.628Z,1020.93
2017-05-31T06:41:29.550Z,1020.91
2017-05-31T06:42:31.473Z,1020.91
2017-05-31T06:43:33.333Z,1020.90
2017-05-31T06:44:35.192Z,1020.80
2017-05-31T06:45:37.110Z,1020.75
2017-05-31T06:46:39.035Z,1020.75
2017-05-31T06:47:40.955Z,1020.65
2017-05-31T06:48:55.366Z,1020.79
2017-05-31T06:49:57.288Z,1020.93
2017-05-31T06:50:59.211Z,1020.98
2017-05-31T06:52:01.133Z,1020.79
2017-05-31T06:53:02.991Z,1020.85
2017-05-31T06:54:04.850Z,1020.95
2017-05-31T06:55:06.769Z,1020.78
2017-05-31T06:56:08.693Z,1020.67
2017-05-31T06:57:10.616Z,1020.76
2017-05-31T06:58:24.777Z,1020.81
2017-05-31T06:59:26.698Z,1020.77
2017-05-31T07:00:28.819Z,1020.81
2017-05-31T07:01:30.740Z,1020.77
2017-05-31T07:02:32.599Z,1020.71
2017-05-31T07:03:34.454Z,1020.70
2017-05-31T07:04:36.379Z,1020.63
2017-05-31T07:05:38.399Z,1020.58
2017-05-31T07:06:40.323Z,1020.57
2017-05-31T07:07:54.483Z,1020.59
2017-05-31T07:08:56.402Z,1020.56
2017-05-31T07:09:58.323Z,1020.60
2017-05-31T07:11:00.244Z,1020.56
2017-05-31T07:12:02.107Z,1020.55
2017-05-31T07:13:03.959Z,1020.58
2017-05-31T07:14:05.879Z,1020.58
2017-05-31T07:15:07.800Z,1020.60
2017-05-31T07:16:09.718Z,1020.73
2017-05-31T07:17:23.928Z,1020.71
2017-05-31T07:18:25.848Z,1020.77
2017-05-31T07:19:27.771Z,1020.76
2017-05-31T07:20:29.696Z,1020.74
2017-05-31T07:21:31.851Z,1020.73
2017-05-31T07:22:33.707Z,1020.77
2017-05-31T07:23:35.595Z,1020.68
2017-05-31T07:24:37.506Z,1020.60
2017-05-31T07:25:39.423Z,1020.58
2017-05-31T07:26:53.781Z,1020.69
2017-05-31T07:27:55.700Z,1020.67
2017-05-31T07:28:57.622Z,1020.60
2017-05-31T07:29:59.543Z,1020.51
2017-05-31T07:31:01.398Z,1020.51
2017-05-31T07:32:03.257Z,1020.47
2017-05-31T07:33:05.178Z,1020.60
2017-05-31T07:34:07.102Z,1020.67
2017-05-31T07:35:09.022Z,1020.79
2017-05-31T07:36:23.430Z,1020.94
2017-05-31T07:37:25.349Z,1020.89
2017-05-31T07:38:27.269Z,1020.90
2017-05-31T07:39:29.193Z,1020.90
2017-05-31T07:40:31.051Z,1020.82
2017-05-31T07:41:32.911Z,1020.80
2017-05-31T07:42:34.932Z,1020.74
2017-05-31T07:43:36.856Z,1020.88
2017-05-31T07:44:38.774Z,1020.79
2017-05-31T07:45:52.936Z,1020.76
2017-05-31T07:46:54.855Z,1020.81
2017-05-31T07:47:57.279Z,1021.00
2017-05-31T07:48:59.213Z,1021.09
2017-05-31T07:50:01.070Z,1021.14
2017-05-31T07:51:02.927Z,1020.99
2017-05-31T07:52:04.846Z,1021.06
2017-05-31T07:53:06.766Z,1020.93
2017-05-31T07:54:08.685Z,1020.99
2017-05-31T07:55:22.845Z,1020.92
2017-05-31T07:56:24.764Z,1020.85
2017-05-31T07:57:26.684Z,1020.97
2017-05-31T07:58:31.658Z,1021.01
2017-05-31T07:59:33.515Z,1021.05
2017-05-31T08:00:35.372Z,1020.94
2017-05-31T08:01:37.297Z,1020.98
2017-05-31T08:02:39.217Z,1021.14
2017-05-31T08:03:41.238Z,1021.13
2017-05-31T08:04:55.448Z,1021.18
2017-05-31T08:05:57.369Z,1021.07
2017-05-31T08:06:59.290Z,1020.99
2017-05-31T08:08:01.212Z,1021.10
2017-05-31T08:09:03.070Z,1021.14
2017-05-31T08:10:04.928Z,1021.16
2017-05-31T08:11:06.849Z,1021.15
2017-05-31T08:12:08.776Z,1021.21
2017-05-31T08:13:10.694Z,1021.12
2017-05-31T08:14:24.851Z,1021.20
2017-05-31T08:15:26.770Z,1021.18
2017-05-31T08:16:28.693Z,1021.01
2017-05-31T08:17:30.615Z,1021.08
2017-05-31T08:18:32.473Z,1021.01
2017-05-31T08:19:34.432Z,1020.98
2017-05-31T08:20:36.353Z,1020.91
2017-05-31T08:21:38.276Z,1021.02
2017-05-31T08:22:40.199Z,1021.12
2017-05-31T08:23:54.657Z,1021.02
2017-05-31T08:24:56.577Z,1021.18
2017-05-31T08:25:58.500Z,1021.25
2017-05-31T08:27:00.421Z,1021.32
2017-05-31T08:28:02.280Z,1021.40
2017-05-31T08:29:04.134Z,1021.36
2017-05-31T08:30:06.055Z,1021.44
2017-05-31T08:31:07.975Z,1021.45
2017-05-31T08:32:09.894Z,1021.30
2017-05-31T08:33:24.105Z,1021.23
2017-05-31T08:34:26.025Z,1021.17
2017-05-31T08:35:27.948Z,1021.17
2017-05-31T08:36:29.870Z,1021.12
2017-05-31T08:37:31.727Z,1021.17
2017-05-31T08:38:33.583Z,1021.22
2017-05-31T08:39:35.502Z,1021.33
2017-05-31T08:40:37.830Z,1021.28
2017-05-31T08:41:39.746Z,1021.29
2017-05-31T08:42:53.955Z,1021.30
2017-05-31T08:43:55.874Z,1021.18
2017-05-31T08:44:57.797Z,1021.06
2017-05-31T08:45:59.720Z,1021.15
2017-05-31T08:47:01.579Z,1021.18
2017-05-31T08:48:03.436Z,1021.25
2017-05-31T08:49:05.360Z,1021.37
2017-05-31T08:50:07.280Z,1021.38
2017-05-31T08:51:09.202Z,1021.30
2017-05-31T08:52:23.411Z,1021.36
2017-05-31T08:53:25.331Z,1021.16
2017-05-31T08:54:27.251Z,1021.19
2017-05-31T08:55:29.173Z,1021.25
2017-05-31T08:56:31.030Z,1021.31
2017-05-31T08:57:32.891Z,1021.55
2017-05-31T08:58:34.811Z,1021.60
2017-05-31T08:59:36.733Z,1021.50
2017-05-31T09:00:38.657Z,1021.45
2017-05-31T09:01:52.917Z,1021.56
2017-05-31T09:02:54.837Z,1021.56
2017-05-31T09:03:56.758Z,1021.63
2017-05-31T09:04:58.680Z,1021.65
2017-05-31T09:06:00.538Z,1021.62
2017-05-31T09:07:02.396Z,1021.68
2017-05-31T09:08:04.316Z,1021.75
2017-05-31T09:09:06.234Z,1021.73
2017-05-31T09:10:08.154Z,1021.73
2017-05-31T09:11:22.314Z,1021.89
2017-05-31T09:12:24.234Z,1021.85
2017-05-31T09:13:26.155Z,1021.77
2017-05-31T09:14:28.077Z,1021.82
2017-05-31T09:15:29.933Z,1021.84
2017-05-31T09:16:31.792Z,1021.87
2017-05-31T09:17:34.014Z,1021.92
2017-05-31T09:18:35.934Z,1021.73
2017-05-31T09:19:37.858Z,1021.76
2017-05-31T09:20:52.068Z,1021.86
2017-05-31T09:21:53.990Z,1021.76
2017-05-31T09:22:56.111Z,1021.80
2017-05-31T09:23:58.032Z,1021.63
2017-05-31T09:24:59.891Z,1021.62
2017-05-31T09:26:01.749Z,1021.57
2017-05-31T09:27:03.671Z,1021.63
2017-05-31T09:28:05.692Z,1021.77
2017-05-31T09:29:07.615Z,1021.79
2017-05-31T09:30:21.774Z,1021.86
2017-05-31T09:31:23.694Z,1021.88
2017-05-31T09:32:25.620Z,1021.93
2017-05-31T09:33:27.537Z,1021.99
2017-05-31T09:34:29.392Z,1022.00
2017-05-31T09:35:31.250Z,1022.05
2017-05-31T09:36:33.173Z,1021.97
2017-05-31T09:37:35.093Z,1022.07
2017-05-31T09:38:37.017Z,1022.00
2017-05-31T09:39:51.182Z,1022.18
2017-05-31T09:40:53.101Z,1022.09
2017-05-31T09:41:55.023Z,1022.06
2017-05-31T09:42:56.946Z,1022.06
2017-05-31T09:43:58.805Z,1022.00
2017-05-31T09:45:00.660Z,1022.08
2017-05-31T09:46:02.579Z,1022.00
2017-05-31T09:47:04.503Z,1022.09
2017-05-31T09:48:06.424Z,1022.03
2017-05-31T09:49:20.884Z,1022.13
2017-05-31T09:50:22.809Z,1022.07
2017-05-31T09:51:24.730Z,1022.15
2017-05-31T09:52:26.653Z,1022.12
2017-05-31T09:53:28.509Z,1022.14
2017-05-31T09:54:30.369Z,1022.19
2017-05-31T09:55:32.251Z,1022.18
2017-05-31T09:56:34.109Z,1022.21
2017-05-31T09:57:35.968Z,1022.19
2017-05-31T09:58:50.130Z,1022.18
2017-05-31T09:59:52.051Z,1022.14
2017-05-31T10:00:53.974Z,1022.18
2017-05-31T10:01:55.899Z,1022.18
2017-05-31T10:02:57.756Z,1022.17
2017-05-31T10:03:59.614Z,1022.02
2017-05-31T10:05:01.536Z,1021.88
2017-05-31T10:06:03.458Z,1021.90
2017-05-31T10:07:05.382Z,1021.96
2017-05-31T10:08:19.543Z,1021.86
2017-05-31T10:09:21.466Z,1021.89
2017-05-31T10:10:23.687Z,1021.87
2017-05-31T10:11:25.611Z,1021.84
2017-05-31T10:12:27.469Z,1021.89
2017-05-31T10:13:29.326Z,1021.80
2017-05-31T10:14:31.246Z,1021.69
2017-05-31T10:15:33.166Z,1021.69
2017-05-31T10:16:35.087Z,1021.76
2017-05-31T10:17:49.297Z,1021.83
2017-05-31T10:18:51.219Z,1021.67
2017-05-31T10:19:53.140Z,1021.68
2017-05-31T10:20:58.266Z,1021.65
2017-05-31T10:22:00.125Z,1021.64
2017-05-31T10:23:01.983Z,1021.63
2017-05-31T10:24:03.903Z,1021.64
2017-05-31T10:25:05.823Z,1021.75
2017-05-31T10:26:07.748Z,1021.83
2017-05-31T10:27:21.958Z,1021.83
2017-05-31T10:28:23.880Z,1021.88
2017-05-31T10:29:25.800Z,1021.84
2017-05-31T10:30:27.724Z,1021.76
2017-05-31T10:31:29.584Z,1021.70
2017-05-31T10:32:31.440Z,1021.65
2017-05-31T10:33:33.360Z,1021.79
2017-05-31T10:34:35.282Z,1021.92
2017-05-31T10:35:37.205Z,1021.81
2017-05-31T10:36:51.566Z,1021.91
2017-05-31T10:37:53.486Z,1021.90
2017-05-31T10:38:55.407Z,1021.83
2017-05-31T10:39:57.329Z,1021.86
2017-05-31T10:40:59.188Z,1021.83
2017-05-31T10:42:01.245Z,1021.66
2017-05-31T10:43:03.169Z,1021.79
2017-05-31T10:44:05.091Z,1021.78
2017-05-31T10:45:07.015Z,1021.89
2017-05-31T10:46:21.223Z,1021.78
2017-05-31T10:47:23.145Z,1021.70
2017-05-31T10:48:25.068Z,1021.79
2017-05-31T10:49:26.990Z,1021.76
2017-05-31T10:50:28.848Z,1021.83
2017-05-31T10:51:30.708Z,1021.92
2017-05-31T10:52:32.630Z,1021.84
2017-05-31T10:53:34.552Z,1021.84
2017-05-31T10:54:36.477Z,1021.73
2017-05-31T10:55:50.633Z,1021.71
2017-05-31T10:56:52.552Z,1021.78
2017-05-31T10:57:54.775Z,1021.82
2017-05-31T10:58:56.698Z,1021.79
2017-05-31T10:59:58.555Z,1021.71
2017-05-31T11:01:00.412Z,1021.61
2017-05-31T11:02:02.331Z,1021.72
2017-05-31T11:03:04.453Z,1021.82
2017-05-31T11:04:06.374Z,1021.70
2017-05-31T11:05:20.536Z,1021.59
2017-05-31T11:06:22.473Z,1021.54
2017-05-31T11:07:24.374Z,1021.53
2017-05-31T11:08:26.296Z,1021.50
2017-05-31T11:09:28.153Z,1021.44
2017-05-31T11:10:30.011Z,1021.50
2017-05-31T11:11:31.933Z,1021.45
2017-05-31T11:12:33.852Z,1021.41
2017-05-31T11:13:36.122Z,1021.35
2017-05-31T11:14:50.333Z,1021.32
2017-05-31T11:15:52.253Z,1021.28
2017-05-31T11:16:54.175Z,1021.26
2017-05-31T11:17:56.099Z,1021.26
2017-05-31T11:18:57.955Z,1021.31
2017-05-31T11:19:59.812Z,1021.33
2017-05-31T11:21:01.733Z,1021.40
2017-05-31T11:22:03.655Z,1021.38
2017-05-31T11:23:05.576Z,1021.29
2017-05-31T11:24:19.737Z,1021.31
2017-05-31T11:25:21.654Z,1021.38
2017-05-31T11:26:23.584Z,1021.34
2017-05-31T11:27:25.494Z,1021.49
2017-05-31T11:28:27.350Z,1021.51
2017-05-31T11:29:32.307Z,1021.64
2017-05-31T11:30:34.226Z,1021.69
2017-05-31T11:31:36.144Z,1021.41
2017-05-31T11:32:38.063Z,1021.33
2017-05-31T11:33:52.468Z,1021.35
2017-05-31T11:34:54.391Z,1021.51
2017-05-31T11:35:56.311Z,1021.52
2017-05-31T11:36:58.232Z,1021.46
2017-05-31T11:38:00.088Z,1021.56
2017-05-31T11:39:01.947Z,1021.50
2017-05-31T11:40:04.216Z,1021.54
2017-05-31T11:41:06.138Z,1021.57
2017-05-31T11:42:08.059Z,1021.33
2017-05-31T11:43:22.265Z,1021.48
2017-05-31T11:44:24.185Z,1021.52
2017-05-31T11:45:26.506Z,1021.44
2017-05-31T11:46:28.425Z,1021.43
2017-05-31T11:47:30.279Z,1021.39
2017-05-31T11:48:32.137Z,1021.29
2017-05-31T11:49:34.056Z,1021.30
2017-05-31T11:50:35.974Z,1021.27
2017-05-31T11:51:37.896Z,1021.21
2017-05-31T11:52:52.106Z,1021.24
2017-05-31T11:53:54.023Z,1021.16
2017-05-31T11:54:55.941Z,1021.23
2017-05-31T11:55:57.859Z,1021.19
2017-05-31T11:56:59.717Z,1021.10
2017-05-31T11:58:01.574Z,1021.26
2017-05-31T11:59:03.489Z,1021.32
2017-05-31T12:00:05.406Z,1021.34
2017-05-31T12:01:07.626Z,1021.38
2017-05-31T12:02:21.787Z,1021.60
2017-05-31T12:03:23.703Z,1021.39
2017-05-31T12:04:25.622Z,1021.47
2017-05-31T12:05:27.537Z,1021.52
2017-05-31T12:06:29.396Z,1021.41
2017-05-31T12:07:31.249Z,1021.38
2017-05-31T12:08:33.163Z,1021.36
2017-05-31T12:09:35.086Z,1021.31
2017-05-31T12:10:37.003Z,1021.28
2017-05-31T12:11:51.161Z,1021.24
2017-05-31T12:12:53.079Z,1021.16
2017-05-31T12:13:54.999Z,1021.15
2017-05-31T12:14:56.918Z,1021.11
2017-05-31T12:15:58.776Z,1021.12
2017-05-31T12:17:00.632Z,1021.10
2017-05-31T12:18:02.553Z,1021.19
2017-05-31T12:19:04.476Z,1021.14
2017-05-31T12:20:06.381Z,1021.11
2017-05-31T12:21:20.765Z,1021.15
2017-05-31T12:22:22.623Z,1021.09
2017-05-31T12:23:24.479Z,1021.12
2017-05-31T12:24:26.397Z,1021.12
2017-05-31T12:25:28.316Z,1021.20
2017-05-31T12:26:30.215Z,1021.31
2017-05-31T12:27:32.267Z,1021.49
2017-05-31T12:28:34.124Z,1021.44
2017-05-31T12:29:36.039Z,1021.34
2017-05-31T12:30:50.308Z,1021.28
2017-05-31T12:31:52.224Z,1021.33
2017-05-31T12:32:54.141Z,1021.30
2017-05-31T12:33:56.059Z,1021.32
2017-05-31T12:34:57.917Z,1021.35
2017-05-31T12:35:59.773Z,1021.15
2017-05-31T12:37:01.690Z,1021.13
2017-05-31T12:38:03.610Z,1021.04
2017-05-31T12:39:05.525Z,1021.05
2017-05-31T12:40:19.689Z,1021.01
2017-05-31T12:41:21.607Z,1021.01
2017-05-31T12:42:23.527Z,1020.97
2017-05-31T12:43:25.543Z,1020.97
2017-05-31T12:44:27.399Z,1020.89
2017-05-31T12:45:29.254Z,1020.92